createdAt,value
2023-02-17T00:03:40.895Z,7.60
2023-02-17T00:09:43.316Z,7.50
2023-02-17T00:15:48.640Z,7.50
2023-02-17T00:21:53.073Z,7.50
2023-02-17T00:27:55.294Z,7.50
2023-02-17T00:33:57.740Z,7.50
2023-02-17T00:40:01.737Z,7.50
2023-02-17T00:46:04.920Z,7.30
2023-02-17T00:52:08.210Z,7.40
2023-02-17T00:58:12.819Z,7.30
2023-02-17T01:04:15.160Z,7.30
2023-02-17T01:10:17.665Z,7.30
2023-02-17T01:16:28.223Z,7.20
2023-02-17T01:22:30.593Z,7.20
2023-02-17T01:28:34.358Z,7.10
2023-02-17T01:34:42.356Z,7.10
2023-02-17T01:40:51.222Z,7.10
2023-02-17T01:46:56.820Z,7.10
2023-02-17T01:53:01.549Z,7.10
2023-02-17T01:59:07.842Z,7.10
2023-02-17T02:05:11.446Z,7.10
2023-02-17T02:11:13.590Z,7.20
2023-02-17T02:17:29.349Z,7.20
2023-02-17T02:24:08.058Z,7.20
2023-02-17T02:30:23.756Z,7.20
2023-02-17T02:36:31.132Z,7.20
2023-02-17T02:42:35.294Z,7.30
2023-02-17T02:48:38.370Z,7.20
2023-02-17T02:54:47.305Z,7.20
2023-02-17T03:01:15.875Z,7.30
2023-02-17T03:07:59.717Z,7.30
2023-02-17T03:14:03.704Z,7.30
2023-02-17T03:20:07.050Z,7.40
2023-02-17T03:26:09.304Z,7.40
2023-02-17T03:32:11.737Z,7.40
2023-02-17T03:38:13.827Z,7.40
2023-02-17T03:44:15.926Z,7.50
2023-02-17T03:50:18.485Z,7.50
2023-02-17T03:56:21.603Z,7.50
2023-02-17T04:02:24.200Z,7.50
2023-02-17T04:08:27.298Z,7.50
2023-02-17T04:14:29.384Z,7.60
2023-02-17T04:20:31.527Z,7.60
2023-02-17T04:26:34.335Z,7.60
2023-02-17T04:32:37.290Z,7.70
2023-02-17T04:38:40.384Z,7.70
2023-02-17T04:44:44.988Z,7.70
2023-02-17T04:50:49.983Z,7.80
2023-02-17T04:56:51.885Z,7.80
2023-02-17T05:02:53.686Z,7.90
2023-02-17T05:08:55.503Z,7.90
2023-02-17T05:14:57.750Z,7.90
2023-02-17T05:20:59.790Z,8.00
2023-02-17T05:27:02.629Z,8.00
2023-02-17T05:33:04.817Z,8.10
2023-02-17T05:39:07.076Z,8.00
2023-02-17T05:45:09.520Z,8.00
2023-02-17T05:51:13.882Z,8.10
2023-02-17T05:57:15.882Z,8.20
2023-02-17T06:03:17.851Z,8.20
2023-02-17T06:09:20.155Z,8.20
2023-02-17T06:15:21.983Z,8.20
2023-02-17T06:21:23.760Z,8.20
2023-02-17T06:27:25.624Z,8.20
2023-02-17T06:33:27.458Z,8.30
2023-02-17T06:39:29.221Z,8.30
2023-02-17T06:45:31.028Z,8.30
2023-02-17T06:51:32.926Z,8.40
2023-02-17T06:57:34.671Z,8.50
2023-02-17T07:03:36.670Z,8.60
2023-02-17T07:09:39.292Z,8.60
2023-02-17T07:15:41.025Z,8.80
2023-02-17T07:21:43.744Z,8.90
2023-02-17T07:27:45.506Z,9.10
2023-02-17T07:33:48.632Z,9.20
2023-02-17T07:39:52.315Z,9.30
2023-02-17T07:45:54.945Z,9.40
2023-02-17T07:51:57.052Z,9.30
2023-02-17T07:57:59.937Z,9.20
2023-02-17T08:04:01.803Z,9.20
2023-02-17T08:10:22.111Z,9.10
2023-02-17T08:16:26.792Z,9.10
2023-02-17T08:22:28.645Z,9.30
2023-02-17T08:28:30.380Z,9.30
2023-02-17T08:34:34.824Z,9.20
2023-02-17T08:40:36.592Z,9.30
2023-02-17T08:46:39.035Z,9.50
2023-02-17T08:52:40.823Z,9.50
2023-02-17T08:58:42.567Z,9.60
2023-02-17T09:04:44.670Z,9.60
2023-02-17T09:10:46.515Z,9.70
2023-02-17T09:16:48.343Z,9.70
2023-02-17T09:22:51.495Z,9.70
2023-02-17T09:28:53.809Z,9.70
2023-02-17T09:34:55.572Z,9.80
2023-02-17T09:41:26.093Z,10.00
2023-02-17T09:47:35.242Z,10.10
2023-02-17T09:53:46.672Z,10.20
2023-02-17T10:00:04.049Z,10.30
2023-02-17T10:06:24.298Z,10.40
2023-02-17T10:12:33.564Z,10.40
2023-02-17T10:18:41.457Z,10.50
2023-02-17T10:24:43.310Z,10.60
2023-02-17T10:31:05.464Z,10.60
2023-02-17T10:37:24.623Z,10.70
2023-02-17T10:43:32.390Z,10.80
2023-02-17T10:49:39.758Z,10.90
2023-02-17T10:55:53.600Z,11.00
2023-02-17T11:02:35.287Z,11.00
2023-02-17T11:08:45.769Z,11.10
2023-02-17T11:14:50.221Z,11.20
2023-02-17T11:21:07.354Z,11.30
2023-02-17T11:27:11.588Z,11.40
2023-02-17T11:33:15.083Z,11.60
2023-02-17T11:39:21.620Z,11.90
2023-02-17T11:45:24.283Z,12.10
2023-02-17T11:51:41.557Z,12.10
2023-02-17T11:57:46.345Z,12.40
2023-02-17T12:04:05.937Z,12.70
2023-02-17T12:10:28.663Z,13.00
2023-02-17T12:17:00.892Z,13.20
2023-02-17T12:23:22.988Z,13.70
2023-02-17T12:29:30.228Z,14.10
2023-02-17T12:35:38.197Z,14.50
2023-02-17T12:42:07.149Z,14.30
2023-02-17T12:48:21.595Z,14.20
2023-02-17T12:54:39.411Z,14.00
2023-02-17T13:00:48.447Z,13.80
2023-02-17T13:07:01.749Z,13.70
2023-02-17T13:13:26.632Z,13.60
2023-02-17T13:19:35.428Z,13.60
2023-02-17T13:25:38.099Z,14.00
2023-02-17T13:32:08.149Z,14.00
2023-02-17T13:38:10.657Z,14.00
2023-02-17T13:44:20.481Z,14.10
2023-02-17T13:50:57.235Z,14.10
2023-02-17T13:56:58.984Z,14.10
2023-02-17T14:03:21.289Z,13.90
2023-02-17T14:09:30.643Z,13.90
2023-02-17T14:15:32.542Z,13.90
2023-02-17T14:21:36.136Z,13.90
2023-02-17T14:27:45.980Z,13.80
2023-02-17T14:33:59.822Z,13.60
2023-02-17T14:40:02.200Z,13.00
2023-02-17T14:46:04.385Z,12.80
2023-02-17T14:52:32.496Z,12.60
2023-02-17T14:58:35.059Z,12.50
2023-02-17T15:04:38.300Z,12.50
2023-02-17T15:10:41.011Z,12.50
2023-02-17T15:16:43.563Z,12.50
2023-02-17T15:22:46.070Z,12.50
2023-02-17T15:28:48.004Z,12.50
2023-02-17T15:34:49.753Z,12.50
2023-02-17T15:40:51.763Z,12.40
2023-02-17T15:46:55.560Z,12.10
2023-02-17T15:52:57.664Z,11.70
2023-02-17T15:59:04.570Z,11.40
2023-02-17T16:05:06.597Z,11.20
2023-02-17T16:11:15.030Z,11.00
2023-02-17T16:17:16.987Z,10.90
2023-02-17T16:23:19.039Z,10.90
2023-02-17T16:29:21.924Z,10.90
2023-02-17T16:35:26.272Z,10.90
2023-02-17T16:41:28.039Z,10.90
2023-02-17T16:47:30.479Z,11.00
2023-02-17T16:53:32.214Z,11.10
2023-02-17T16:59:33.921Z,11.20
2023-02-17T17:05:36.602Z,11.20
2023-02-17T17:11:38.380Z,11.10
2023-02-17T17:17:44.684Z,11.10
2023-02-17T17:23:46.749Z,11.10
2023-02-17T17:29:48.574Z,11.20
2023-02-17T17:35:50.383Z,11.30
2023-02-17T17:41:52.397Z,11.30
2023-02-17T17:47:54.300Z,11.10
2023-02-17T17:53:56.677Z,11.20
2023-02-17T17:59:58.410Z,11.10
2023-02-17T18:06:00.921Z,11.10
2023-02-17T18:12:11.160Z,11.10
2023-02-17T18:18:13.532Z,11.10
2023-02-17T18:24:15.461Z,11.20
2023-02-17T18:30:21.731Z,11.40
2023-02-17T18:36:26.471Z,11.20
2023-02-17T18:42:28.222Z,11.20
2023-02-17T18:48:30.135Z,11.20
2023-02-17T18:54:31.988Z,11.30
2023-02-17T19:00:33.868Z,11.30
2023-02-17T19:06:35.869Z,11.20
2023-02-17T19:12:37.974Z,11.30
2023-02-17T19:18:41.434Z,11.30
2023-02-17T19:24:43.327Z,11.30
2023-02-17T19:30:45.112Z,11.30
2023-02-17T19:36:46.914Z,11.30
2023-02-17T19:42:48.665Z,11.30
2023-02-17T19:48:50.386Z,11.20
2023-02-17T19:54:52.142Z,10.00
2023-02-17T20:00:53.909Z,9.50
2023-02-17T20:06:55.771Z,9.20
2023-02-17T20:12:57.621Z,9.10
2023-02-17T20:19:01.601Z,8.90
2023-02-17T20:25:03.476Z,8.60
2023-02-17T20:31:06.623Z,8.50
2023-02-17T20:37:09.553Z,8.40
2023-02-17T20:43:15.296Z,8.40
2023-02-17T20:49:17.058Z,8.30
2023-02-17T20:55:19.702Z,8.30
2023-02-17T21:01:21.488Z,8.30
2023-02-17T21:07:23.337Z,8.40
2023-02-17T21:13:25.102Z,8.40
2023-02-17T21:19:29.356Z,8.50
2023-02-17T21:25:31.140Z,8.50
2023-02-17T21:31:33.388Z,8.40
2023-02-17T21:37:35.274Z,8.50
2023-02-17T21:43:57.286Z,8.30
2023-02-17T21:49:59.499Z,8.20
2023-02-17T21:56:01.516Z,8.20
2023-02-17T22:02:03.302Z,8.10
2023-02-17T22:08:05.094Z,8.00
2023-02-17T22:14:11.092Z,7.90
2023-02-17T22:20:15.095Z,7.80
2023-02-17T22:26:22.384Z,7.60
2023-02-17T22:32:24.387Z,7.70
2023-02-17T22:38:26.380Z,7.90
2023-02-17T22:44:28.211Z,7.80
2023-02-17T22:50:30.001Z,7.60
2023-02-17T22:56:32.529Z,7.60
2023-02-17T23:02:35.429Z,7.60
2023-02-17T23:08:37.753Z,7.60
2023-02-17T23:14:40.188Z,7.80
2023-02-17T23:20:44.439Z,7.80
2023-02-17T23:26:47.521Z,7.90
2023-02-17T23:32:49.581Z,7.70
2023-02-17T23:38:51.423Z,7.50
2023-02-17T23:44:53.777Z,7.50
2023-02-17T23:51:00.774Z,7.60
2023-02-17T23:57:03.559Z,7.60
